Aérodrome :
LOGIN :

S'inscrire | Disclaimer

   EN    FR    IT 

 










Légende :    VFR   VFR Marginal   IFR   IFR Intensif   IFR Très Intensif
Visi : 
Plafond : 
>= 8 km
>= 3000ft
5 à 8 km
1000 à 3000 ft
1500m à 5 km
500 à 1000 ft
800 à 1500m
200 à 500 ft
< 800m
< 200 ft
Symboles :   Orages  Brouillard  Fortes neiges  Fortes précipitations  Vent > 20 kt
SIGMETs :   Divers  Orages  Givrage  Turbulence  Onde Orograph.  Cendres Volcan.






- Altitude de l'aérodrome : 474 ft
- Code IATA : HFS


ESOH - Hagfors

DERNIER METAR :
  • 302020Z AUTO 00000KT 9999 NCD M06/M10 Q1029

METARs EXPIRÉS :
  • 301950Z AUTO 00000KT 9999 NCD M05/M13 Q1029
  • 301920Z AUTO 00000KT 9999 NCD M04/M12 Q1028
  • 301850Z AUTO 34003KT 9999 NCD M03/M13 Q1028
  • 301820Z AUTO 36002KT 9999 NCD M02/M13 Q1028
  • 301750Z AUTO 02003KT 9999 NCD 00/M14 Q1028

TAF N/A



MET'MAP, la Météo Aéronautique d'un coup d'oeil ! - Copyright ORBIFLY Décembre 2007 - Disclaimer

ORBIFLY MET'MAP TEAM :

Programmation & Développement : Alexandra Zaïnal
Sur une idée originale de : Baudouin d'Aumeries
Assistance à la programmation : Marc-Olivier Méhu
Soutien technique & logistique : Manuel Goepfert

Contact : metmap@orbifly.com




SOURCES & CREDITS :

   NOAA